createdAt,value
2018-08-23T00:00:27.737Z,989.49
2018-08-23T00:01:27.741Z,989.42
2018-08-23T00:02:27.742Z,989.45
2018-08-23T00:03:27.756Z,989.47
2018-08-23T00:04:27.746Z,989.46
2018-08-23T00:05:27.749Z,989.46
2018-08-23T00:06:27.753Z,989.41
2018-08-23T00:07:27.749Z,989.4
2018-08-23T00:08:27.767Z,989.46
2018-08-23T00:09:27.779Z,989.4
2018-08-23T00:10:27.775Z,989.38
2018-08-23T00:11:27.758Z,989.41
2018-08-23T00:12:27.765Z,989.42
2018-08-23T00:13:27.776Z,989.47
2018-08-23T00:14:27.766Z,989.41
2018-08-23T00:15:27.766Z,989.34
2018-08-23T00:16:27.768Z,989.37
2018-08-23T00:17:27.773Z,989.4
2018-08-23T00:18:27.777Z,989.44
2018-08-23T00:19:27.775Z,989.47
2018-08-23T00:20:27.786Z,989.41
2018-08-23T00:21:27.778Z,989.41
2018-08-23T00:22:27.778Z,989.33
2018-08-23T00:23:27.783Z,989.39
2018-08-23T00:24:27.786Z,989.39
2018-08-23T00:25:27.785Z,989.39
2018-08-23T00:26:27.787Z,989.34
2018-08-23T00:27:27.785Z,989.31
2018-08-23T00:28:27.790Z,989.39
2018-08-23T00:29:27.803Z,989.36
2018-08-23T00:30:27.826Z,989.35
2018-08-23T00:31:27.794Z,989.37
2018-08-23T00:32:27.795Z,989.32
2018-08-23T00:33:27.796Z,989.37
2018-08-23T00:34:27.802Z,989.32
2018-08-23T00:35:27.799Z,989.38
2018-08-23T00:36:27.805Z,989.34
2018-08-23T00:37:27.805Z,989.37
2018-08-23T00:38:27.804Z,989.29
2018-08-23T00:39:27.816Z,989.33
2018-08-23T00:40:27.806Z,989.33
2018-08-23T00:41:27.810Z,989.28
2018-08-23T00:42:27.812Z,989.26
2018-08-23T00:43:27.812Z,989.25
2018-08-23T00:44:27.816Z,989.23
2018-08-23T00:45:27.817Z,989.23
2018-08-23T00:46:27.816Z,989.21
2018-08-23T00:47:27.818Z,989.17
2018-08-23T00:48:27.820Z,989.17
2018-08-23T00:49:27.824Z,989.16
2018-08-23T00:50:27.826Z,989.15
2018-08-23T00:51:27.825Z,989.16
2018-08-23T00:52:27.835Z,989.15
2018-08-23T00:53:27.829Z,989.17
2018-08-23T00:54:27.827Z,989.18
2018-08-23T00:55:27.834Z,989.19
2018-08-23T00:56:27.833Z,989.2
2018-08-23T00:57:27.833Z,989.21
2018-08-23T00:58:27.833Z,989.18
2018-08-23T00:59:27.835Z,989.21
2018-08-23T01:00:27.838Z,989.21
2018-08-23T01:01:27.847Z,989.2
2018-08-23T01:02:27.845Z,989.23
2018-08-23T01:03:29.445Z,989.17
2018-08-23T01:04:27.848Z,989.18
2018-08-23T01:05:27.852Z,989.18
2018-08-23T01:06:27.864Z,989.18
2018-08-23T01:07:27.852Z,989.15
2018-08-23T01:08:27.854Z,989.19
2018-08-23T01:09:27.904Z,989.18
2018-08-23T01:10:27.859Z,989.18
2018-08-23T01:11:27.859Z,989.15
2018-08-23T01:12:27.862Z,989.14
2018-08-23T01:13:27.865Z,989.14
2018-08-23T01:14:27.878Z,989.17
2018-08-23T01:15:27.867Z,989.14
2018-08-23T01:16:27.866Z,989.19
2018-08-23T01:17:27.871Z,989.14
2018-08-23T01:18:27.875Z,989.17
2018-08-23T01:19:27.878Z,989.16
2018-08-23T01:20:27.877Z,989.15
2018-08-23T01:21:27.879Z,989.14
2018-08-23T01:22:27.883Z,989.15
2018-08-23T01:23:27.883Z,989.12
2018-08-23T01:24:27.884Z,989.11
2018-08-23T01:25:27.891Z,989.13
2018-08-23T01:26:27.894Z,989.06
2018-08-23T01:27:27.890Z,989.1
2018-08-23T01:28:27.895Z,989.12
2018-08-23T01:29:27.895Z,989.08
2018-08-23T01:30:27.898Z,989.12
2018-08-23T01:31:27.900Z,989.1
2018-08-23T01:32:27.901Z,989.11
2018-08-23T01:33:27.903Z,989.15
2018-08-23T01:34:27.908Z,989.16
2018-08-23T01:35:27.912Z,989.14
2018-08-23T01:36:27.913Z,989.14
2018-08-23T01:37:27.915Z,989.12
2018-08-23T01:38:27.920Z,989.13
2018-08-23T01:39:27.920Z,989.16
2018-08-23T01:40:27.925Z,989.15
2018-08-23T01:41:27.936Z,989.16
2018-08-23T01:42:27.932Z,989.15
2018-08-23T01:43:27.935Z,989.15
2018-08-23T01:44:27.933Z,989.18
2018-08-23T01:45:27.934Z,989.16
2018-08-23T01:46:27.936Z,989.15
2018-08-23T01:47:27.979Z,989.14
2018-08-23T01:48:27.984Z,989.11
2018-08-23T01:49:27.941Z,989.1
2018-08-23T01:50:27.944Z,989.1
2018-08-23T01:51:27.943Z,989.07
2018-08-23T01:52:27.948Z,989.08
2018-08-23T01:53:27.948Z,989.09
2018-08-23T01:54:27.950Z,989.09
2018-08-23T01:55:27.953Z,989.07
2018-08-23T01:56:27.956Z,989.1
2018-08-23T01:57:27.959Z,989.11
2018-08-23T01:58:27.959Z,989.09
2018-08-23T01:59:27.962Z,989.13
2018-08-23T02:00:27.969Z,989.09
2018-08-23T02:01:27.967Z,989.13
2018-08-23T02:02:27.969Z,989.13
2018-08-23T02:03:27.970Z,989.13
2018-08-23T02:04:28.129Z,989.1
2018-08-23T02:05:27.976Z,989.13
2018-08-23T02:06:27.976Z,989.11
2018-08-23T02:07:27.980Z,989.08
2018-08-23T02:08:27.979Z,989.08
2018-08-23T02:09:28.002Z,989.08
2018-08-23T02:10:27.990Z,989.08
2018-08-23T02:11:27.986Z,989.09
2018-08-23T02:12:27.989Z,989.04
2018-08-23T02:13:27.991Z,989.02
2018-08-23T02:14:28.002Z,989.02
2018-08-23T02:15:27.999Z,989.05
2018-08-23T02:16:28.005Z,989
2018-08-23T02:17:28.011Z,989.01
2018-08-23T02:18:28.005Z,989.02
2018-08-23T02:19:28.007Z,989.03
2018-08-23T02:20:28.024Z,989.02
2018-08-23T02:21:28.014Z,989.07
2018-08-23T02:22:28.010Z,989.06
2018-08-23T02:23:28.027Z,989.07
2018-08-23T02:24:28.012Z,989.09
2018-08-23T02:25:28.015Z,989.09
2018-08-23T02:26:28.017Z,989.08
2018-08-23T02:27:28.018Z,989.07
2018-08-23T02:28:28.020Z,989.04
2018-08-23T02:29:28.020Z,989.07
2018-08-23T02:30:28.030Z,989.04
2018-08-23T02:31:28.026Z,989.06
2018-08-23T02:32:28.048Z,989.1
2018-08-23T02:33:28.032Z,989.06
2018-08-23T02:34:29.632Z,989.06
2018-08-23T02:35:28.034Z,989.07
2018-08-23T02:36:28.036Z,989.03
2018-08-23T02:37:28.041Z,989.05
2018-08-23T02:38:28.039Z,989.04
2018-08-23T02:39:28.036Z,989.03
2018-08-23T02:40:28.041Z,988.98
2018-08-23T02:41:28.047Z,989.01
2018-08-23T02:42:28.043Z,989.02
2018-08-23T02:43:28.049Z,988.97
2018-08-23T02:44:28.047Z,988.94
2018-08-23T02:45:28.049Z,988.96
2018-08-23T02:46:28.065Z,988.98
2018-08-23T02:47:28.052Z,988.95
2018-08-23T02:48:28.067Z,989.01
2018-08-23T02:49:28.064Z,988.95
2018-08-23T02:50:28.068Z,988.94
2018-08-23T02:51:28.068Z,988.94
2018-08-23T02:52:28.070Z,988.9
2018-08-23T02:53:28.071Z,988.91
2018-08-23T02:54:28.070Z,988.9
2018-08-23T02:55:28.072Z,988.91
2018-08-23T02:56:28.070Z,988.87
2018-08-23T02:57:28.077Z,988.86
2018-08-23T02:58:28.073Z,988.86
2018-08-23T02:59:28.073Z,988.84
2018-08-23T03:00:28.099Z,988.83
2018-08-23T03:01:28.096Z,988.85
2018-08-23T03:02:28.079Z,988.9
2018-08-23T03:03:28.081Z,988.81
2018-08-23T03:04:28.083Z,988.86
2018-08-23T03:05:28.087Z,988.85
2018-08-23T03:06:28.088Z,988.84
2018-08-23T03:07:28.099Z,988.84
2018-08-23T03:08:28.099Z,988.79
2018-08-23T03:09:28.093Z,988.81
2018-08-23T03:10:28.093Z,988.78
2018-08-23T03:11:28.110Z,988.81
2018-08-23T03:12:28.097Z,988.8
2018-08-23T03:13:28.099Z,988.79
2018-08-23T03:14:28.103Z,988.77
2018-08-23T03:15:28.101Z,988.79
2018-08-23T03:16:28.106Z,988.76
2018-08-23T03:17:28.108Z,988.71
2018-08-23T03:18:28.110Z,988.74
2018-08-23T03:19:28.111Z,988.74
2018-08-23T03:20:28.111Z,988.7
2018-08-23T03:21:28.117Z,988.69
2018-08-23T03:22:28.115Z,988.71
2018-08-23T03:23:28.116Z,988.7
2018-08-23T03:24:28.126Z,988.64
2018-08-23T03:25:28.122Z,988.69
2018-08-23T03:26:28.126Z,988.67
2018-08-23T03:27:28.124Z,988.69
2018-08-23T03:28:28.130Z,988.65
2018-08-23T03:29:28.141Z,988.64
2018-08-23T03:30:28.147Z,988.68
2018-08-23T03:31:28.143Z,988.7
2018-08-23T03:32:28.149Z,988.67
2018-08-23T03:33:28.145Z,988.64
2018-08-23T03:34:28.145Z,988.63
2018-08-23T03:35:28.146Z,988.63
2018-08-23T03:36:28.143Z,988.64
2018-08-23T03:37:28.159Z,988.64
2018-08-23T03:38:28.145Z,988.67
2018-08-23T03:39:28.147Z,988.65
2018-08-23T03:40:28.150Z,988.67
2018-08-23T03:41:28.148Z,988.7
2018-08-23T03:42:28.152Z,988.72
2018-08-23T03:43:28.152Z,988.7
2018-08-23T03:44:28.158Z,988.71
2018-08-23T03:45:28.159Z,988.73
2018-08-23T03:46:28.162Z,988.7
2018-08-23T03:47:28.167Z,988.69
2018-08-23T03:48:28.167Z,988.71
2018-08-23T03:49:28.164Z,988.71
2018-08-23T03:50:28.164Z,988.73
2018-08-23T03:51:28.167Z,988.75
2018-08-23T03:52:28.197Z,988.76
2018-08-23T03:53:28.179Z,988.7
2018-08-23T03:54:28.173Z,988.74
2018-08-23T03:55:28.175Z,988.73
2018-08-23T03:56:28.178Z,988.75
2018-08-23T03:57:28.177Z,988.79
2018-08-23T03:58:28.180Z,988.75
2018-08-23T03:59:28.179Z,988.78
2018-08-23T04:00:28.185Z,988.76
2018-08-23T04:01:28.185Z,988.8
2018-08-23T04:02:28.187Z,988.8
2018-08-23T04:03:28.187Z,988.82
2018-08-23T04:04:28.190Z,988.78
2018-08-23T04:05:28.215Z,988.79
2018-08-23T04:06:28.193Z,988.79
2018-08-23T04:07:28.227Z,988.76
2018-08-23T04:08:28.224Z,988.81
2018-08-23T04:09:28.278Z,988.77
2018-08-23T04:10:28.266Z,988.79
2018-08-23T04:11:28.212Z,988.78
2018-08-23T04:12:28.203Z,988.79
2018-08-23T04:13:28.204Z,988.76
2018-08-23T04:14:28.214Z,988.79
2018-08-23T04:15:28.245Z,988.75
2018-08-23T04:16:28.215Z,988.77
2018-08-23T04:17:28.214Z,988.8
2018-08-23T04:18:28.220Z,988.82
2018-08-23T04:19:28.220Z,988.79
2018-08-23T04:20:28.223Z,988.81
2018-08-23T04:21:28.223Z,988.83
2018-08-23T04:22:28.219Z,988.85
2018-08-23T04:23:28.226Z,988.84
2018-08-23T04:24:28.226Z,988.79
2018-08-23T04:25:28.227Z,988.78
2018-08-23T04:26:28.227Z,988.76
2018-08-23T04:27:28.228Z,988.77
2018-08-23T04:28:28.237Z,988.76
2018-08-23T04:29:28.231Z,988.75
2018-08-23T04:30:28.232Z,988.77
2018-08-23T04:31:28.242Z,988.76
2018-08-23T04:32:28.239Z,988.75
2018-08-23T04:33:28.293Z,988.74
2018-08-23T04:34:28.256Z,988.76
2018-08-23T04:35:28.566Z,988.77
2018-08-23T04:36:28.263Z,988.79
2018-08-23T04:37:28.243Z,988.8
2018-08-23T04:38:28.244Z,988.78
2018-08-23T04:39:28.248Z,988.82
2018-08-23T04:40:28.246Z,988.8
2018-08-23T04:41:28.249Z,988.83
2018-08-23T04:42:28.252Z,988.85
2018-08-23T04:43:28.253Z,988.84
2018-08-23T04:44:28.253Z,988.86
2018-08-23T04:45:28.254Z,988.85
2018-08-23T04:46:28.274Z,988.88
2018-08-23T04:47:28.259Z,988.86
2018-08-23T04:48:28.267Z,988.84
2018-08-23T04:49:28.263Z,988.88
2018-08-23T04:50:28.266Z,988.85
2018-08-23T04:51:28.265Z,988.87
2018-08-23T04:52:28.267Z,988.87
2018-08-23T04:53:28.268Z,988.9
2018-08-23T04:54:28.272Z,988.86
2018-08-23T04:55:28.271Z,988.86
2018-08-23T04:56:28.273Z,988.86
2018-08-23T04:57:28.274Z,988.84
2018-08-23T04:58:28.278Z,988.89
2018-08-23T04:59:28.289Z,988.84
2018-08-23T05:00:28.279Z,988.9
2018-08-23T05:01:28.279Z,988.95
2018-08-23T05:02:28.282Z,988.9
2018-08-23T05:03:28.285Z,988.94
2018-08-23T05:04:28.301Z,988.94
2018-08-23T05:05:28.681Z,988.93
2018-08-23T05:06:28.300Z,989.03
2018-08-23T05:07:28.286Z,989.03
2018-08-23T05:08:28.294Z,989.01
2018-08-23T05:09:28.292Z,989.02
2018-08-23T05:10:28.292Z,989.01
2018-08-23T05:11:28.290Z,989.06
2018-08-23T05:12:28.291Z,989.07
2018-08-23T05:13:28.293Z,989.02
2018-08-23T05:14:28.296Z,988.99
2018-08-23T05:15:28.295Z,988.96
2018-08-23T05:16:28.297Z,988.97
2018-08-23T05:17:28.298Z,988.99
2018-08-23T05:18:28.299Z,988.98
2018-08-23T05:19:28.309Z,988.96
2018-08-23T05:20:28.302Z,988.98
2018-08-23T05:21:28.304Z,989
2018-08-23T05:22:28.310Z,989.01
2018-08-23T05:23:28.311Z,988.99
2018-08-23T05:24:28.313Z,989
2018-08-23T05:25:28.325Z,988.99
2018-08-23T05:26:28.321Z,988.97
2018-08-23T05:27:28.321Z,988.97
2018-08-23T05:28:28.323Z,988.98
2018-08-23T05:29:28.326Z,988.99
2018-08-23T05:30:28.329Z,989.01
2018-08-23T05:31:28.332Z,989.01
2018-08-23T05:32:28.337Z,989.03
2018-08-23T05:33:28.336Z,989.02
2018-08-23T05:34:28.359Z,989
2018-08-23T05:35:28.343Z,988.95
2018-08-23T05:36:28.345Z,989.01
2018-08-23T05:37:28.350Z,988.95
2018-08-23T05:38:28.355Z,988.97
2018-08-23T05:39:28.356Z,988.97
2018-08-23T05:40:28.365Z,989.01
2018-08-23T05:41:28.360Z,989.04
2018-08-23T05:42:28.365Z,989.07
2018-08-23T05:43:28.370Z,989.07
2018-08-23T05:44:28.367Z,989.05
2018-08-23T05:45:28.387Z,989.06
2018-08-23T05:46:28.376Z,989.05
2018-08-23T05:47:28.376Z,989.07
2018-08-23T05:48:28.380Z,989.02
2018-08-23T05:49:28.383Z,989.05
2018-08-23T05:50:28.385Z,989.02
2018-08-23T05:51:28.392Z,989.03
2018-08-23T05:52:28.395Z,989.02
2018-08-23T05:53:28.395Z,989.04
2018-08-23T05:54:28.403Z,989
2018-08-23T05:55:28.445Z,989
2018-08-23T05:56:28.418Z,989
2018-08-23T05:57:28.407Z,989.03
2018-08-23T05:58:28.418Z,988.99
2018-08-23T05:59:28.412Z,989.01
2018-08-23T06:00:28.418Z,989.01
2018-08-23T06:01:28.429Z,989.01
2018-08-23T06:02:28.417Z,989.04
2018-08-23T06:03:28.421Z,989.03
2018-08-23T06:04:28.423Z,989.03
2018-08-23T06:05:28.428Z,989.05
2018-08-23T06:06:28.432Z,989.02
2018-08-23T06:07:28.437Z,989.05
2018-08-23T06:08:28.437Z,989.04
2018-08-23T06:09:28.440Z,989.05
2018-08-23T06:10:28.441Z,989.04
2018-08-23T06:11:28.449Z,989.03
2018-08-23T06:12:28.447Z,988.98
2018-08-23T06:13:28.450Z,989
2018-08-23T06:14:28.457Z,989.03
2018-08-23T06:15:28.679Z,989.03
2018-08-23T06:16:28.458Z,989.09
2018-08-23T06:17:28.463Z,989.03
2018-08-23T06:18:28.464Z,989.08
2018-08-23T06:19:28.479Z,989.09
2018-08-23T06:20:28.480Z,989.09
2018-08-23T06:21:28.478Z,989.1
2018-08-23T06:22:28.488Z,989.06
2018-08-23T06:23:28.481Z,989.08
2018-08-23T06:24:28.484Z,989.1
2018-08-23T06:25:28.488Z,989.14
2018-08-23T06:26:28.491Z,989.12
2018-08-23T06:27:28.589Z,989.16
2018-08-23T06:28:28.494Z,989.11
2018-08-23T06:29:28.496Z,989.1
2018-08-23T06:30:28.501Z,989.12
2018-08-23T06:31:28.501Z,989.15
2018-08-23T06:32:28.504Z,989.18
2018-08-23T06:33:28.760Z,989.16
2018-08-23T06:34:28.512Z,989.16
2018-08-23T06:35:28.585Z,989.18
2018-08-23T06:36:30.274Z,989.13
2018-08-23T06:37:28.523Z,989.17
2018-08-23T06:38:28.520Z,989.14
2018-08-23T06:39:28.523Z,989.13
2018-08-23T06:40:28.526Z,989.15
2018-08-23T06:41:28.529Z,989.16
2018-08-23T06:42:28.530Z,989.2
2018-08-23T06:43:28.557Z,989.17
2018-08-23T06:44:28.578Z,989.15
2018-08-23T06:45:28.547Z,989.17
2018-08-23T06:46:28.547Z,989.15
2018-08-23T06:47:28.553Z,989.18
2018-08-23T06:48:28.548Z,989.21
2018-08-23T06:49:28.561Z,989.21
2018-08-23T06:50:28.551Z,989.22
2018-08-23T06:51:28.554Z,989.22
2018-08-23T06:52:28.557Z,989.23
2018-08-23T06:53:28.558Z,989.22
2018-08-23T06:54:28.589Z,989.19
2018-08-23T06:55:28.560Z,989.2
2018-08-23T06:56:28.570Z,989.17
2018-08-23T06:57:28.574Z,989.16
2018-08-23T06:58:28.574Z,989.14
2018-08-23T06:59:28.571Z,989.18
2018-08-23T07:00:28.574Z,989.09
2018-08-23T07:01:28.599Z,989.12
2018-08-23T07:02:28.591Z,989.12
2018-08-23T07:03:28.584Z,989.12
2018-08-23T07:04:28.583Z,989.12
2018-08-23T07:05:28.652Z,989.14
2018-08-23T07:06:28.599Z,989.09
2018-08-23T07:07:28.592Z,989.11
2018-08-23T07:08:28.616Z,989.1
2018-08-23T07:09:28.610Z,989.14
2018-08-23T07:10:28.607Z,989.12
2018-08-23T07:11:28.607Z,989.12
2018-08-23T07:12:28.607Z,989.12
2018-08-23T07:13:28.611Z,989.08
2018-08-23T07:14:28.619Z,989.12
2018-08-23T07:16:28.623Z,989.11
2018-08-23T07:17:28.677Z,989.11
2018-08-23T07:18:28.636Z,989.09
2018-08-23T07:19:28.630Z,989.1
2018-08-23T07:20:28.634Z,989.11
2018-08-23T07:21:28.639Z,989.11
2018-08-23T07:22:28.639Z,989.11
2018-08-23T07:23:28.651Z,989.07
2018-08-23T07:24:28.649Z,989.06
2018-08-23T07:25:28.647Z,989.07
2018-08-23T07:26:28.660Z,989.05
2018-08-23T07:27:28.654Z,989.05
2018-08-23T07:28:28.659Z,989.07
2018-08-23T07:29:28.668Z,989.06
2018-08-23T07:30:28.673Z,989.08
2018-08-23T07:31:28.672Z,989.07
2018-08-23T07:32:28.678Z,989.04
2018-08-23T07:33:28.685Z,989.08
2018-08-23T07:34:28.679Z,989.05
2018-08-23T07:35:28.685Z,989.03
2018-08-23T07:36:28.689Z,989.03
2018-08-23T07:37:28.691Z,988.98
2018-08-23T07:38:28.695Z,988.98
2018-08-23T07:39:28.697Z,988.97
2018-08-23T07:40:28.702Z,988.96
2018-08-23T07:41:28.719Z,989
2018-08-23T07:42:28.707Z,989
2018-08-23T07:43:28.711Z,988.95
2018-08-23T07:44:28.716Z,988.95
2018-08-23T07:45:28.721Z,988.99
2018-08-23T07:46:28.725Z,988.95
2018-08-23T07:47:28.880Z,989
2018-08-23T07:48:28.734Z,988.95
2018-08-23T07:49:28.744Z,988.94
2018-08-23T07:50:28.740Z,988.94
2018-08-23T07:51:28.748Z,988.95
2018-08-23T07:52:28.784Z,988.97
2018-08-23T07:53:28.983Z,988.99
2018-08-23T07:54:28.752Z,989.01
2018-08-23T07:55:28.773Z,988.94
2018-08-23T07:56:28.761Z,988.94
2018-08-23T07:57:28.769Z,988.97
2018-08-23T07:58:28.770Z,988.95
2018-08-23T07:59:28.771Z,988.93
2018-08-23T08:00:28.791Z,988.94
2018-08-23T08:01:28.780Z,988.96
2018-08-23T08:02:28.781Z,988.93
2018-08-23T08:03:28.788Z,988.94
2018-08-23T08:04:28.792Z,988.96
2018-08-23T08:05:28.796Z,988.97
2018-08-23T08:06:28.801Z,989
2018-08-23T08:07:28.818Z,988.99
2018-08-23T08:08:28.810Z,988.99
2018-08-23T08:09:28.815Z,988.95
2018-08-23T08:10:28.815Z,988.99
2018-08-23T08:11:28.817Z,988.96
2018-08-23T08:12:28.821Z,989.02
2018-08-23T08:13:28.828Z,988.99
2018-08-23T08:14:28.828Z,989.03
2018-08-23T08:15:28.835Z,989.03
2018-08-23T08:16:28.851Z,989.04
2018-08-23T08:17:28.845Z,989.02
2018-08-23T08:18:28.850Z,989.05
2018-08-23T08:19:28.871Z,989.09
2018-08-23T08:20:28.852Z,989.11
2018-08-23T08:21:28.893Z,989.1
2018-08-23T08:22:28.859Z,989.17
2018-08-23T08:23:28.865Z,989.15
2018-08-23T08:24:28.866Z,989.17
2018-08-23T08:25:28.880Z,989.2
2018-08-23T08:26:28.877Z,989.21
2018-08-23T08:27:28.877Z,989.24
2018-08-23T08:28:28.886Z,989.27
2018-08-23T08:29:28.890Z,989.22
2018-08-23T08:30:28.903Z,989.21
2018-08-23T08:31:28.909Z,989.18
2018-08-23T08:32:28.906Z,989.23
2018-08-23T08:33:28.904Z,989.23
2018-08-23T08:34:28.906Z,989.24
2018-08-23T08:35:28.909Z,989.28
2018-08-23T08:36:28.927Z,989.25
2018-08-23T08:37:28.931Z,989.32
2018-08-23T08:38:28.931Z,989.27
2018-08-23T08:39:28.936Z,989.34
2018-08-23T08:40:28.946Z,989.31
2018-08-23T08:41:28.933Z,989.31
2018-08-23T08:42:28.938Z,989.32
2018-08-23T08:43:28.962Z,989.36
2018-08-23T08:44:28.947Z,989.36
2018-08-23T08:45:28.954Z,989.4
2018-08-23T08:46:28.985Z,989.41
2018-08-23T08:47:28.962Z,989.41
2018-08-23T08:48:28.964Z,989.35
2018-08-23T08:49:28.969Z,989.4
2018-08-23T08:50:28.988Z,989.41
2018-08-23T08:51:28.976Z,989.37
2018-08-23T08:52:28.986Z,989.4
2018-08-23T08:53:28.997Z,989.39
2018-08-23T08:54:29.001Z,989.4
2018-08-23T08:55:28.997Z,989.42
2018-08-23T08:56:29.014Z,989.41
2018-08-23T08:57:29.001Z,989.43
2018-08-23T08:58:29.007Z,989.44
2018-08-23T08:59:29.011Z,989.38
2018-08-23T09:00:29.014Z,989.37
2018-08-23T09:01:29.023Z,989.38
2018-08-23T09:02:29.025Z,989.36
2018-08-23T09:03:29.029Z,989.38
2018-08-23T09:04:29.033Z,989.37
2018-08-23T09:05:29.036Z,989.37
2018-08-23T09:06:29.045Z,989.38
2018-08-23T09:07:29.199Z,989.35
2018-08-23T09:08:29.062Z,989.33
2018-08-23T09:09:29.061Z,989.38
2018-08-23T09:10:29.058Z,989.38
2018-08-23T09:11:29.095Z,989.34
2018-08-23T09:12:29.070Z,989.34
2018-08-23T09:13:29.097Z,989.38
2018-08-23T09:14:29.099Z,989.39
2018-08-23T09:15:29.087Z,989.4
2018-08-23T09:16:29.108Z,989.43
2018-08-23T09:17:29.094Z,989.41
2018-08-23T09:18:29.098Z,989.4
2018-08-23T09:19:29.104Z,989.35
2018-08-23T09:20:29.150Z,989.36
2018-08-23T09:21:29.178Z,989.36
2018-08-23T09:22:29.137Z,989.39
2018-08-23T09:23:29.146Z,989.4
2018-08-23T09:24:29.141Z,989.36
2018-08-23T09:25:29.145Z,989.4
2018-08-23T09:26:29.149Z,989.33
2018-08-23T09:27:29.191Z,989.3
2018-08-23T09:28:29.151Z,989.3
2018-08-23T09:29:29.151Z,989.28
2018-08-23T09:30:29.271Z,989.33
2018-08-23T09:31:29.161Z,989.29
2018-08-23T09:32:29.166Z,989.27
2018-08-23T09:33:29.172Z,989.28
2018-08-23T09:34:29.176Z,989.3
2018-08-23T09:35:29.181Z,989.27
2018-08-23T09:36:29.188Z,989.25
2018-08-23T09:37:31.055Z,989.25
2018-08-23T09:38:29.205Z,989.24
2018-08-23T09:39:29.208Z,989.29
2018-08-23T09:40:29.215Z,989.22
2018-08-23T09:41:29.218Z,989.2
2018-08-23T09:42:29.224Z,989.22
2018-08-23T09:43:29.231Z,989.15
2018-08-23T09:44:29.238Z,989.13
2018-08-23T09:45:29.245Z,989.13
2018-08-23T09:46:29.258Z,989.16
2018-08-23T09:47:29.297Z,989.17
2018-08-23T09:48:29.258Z,989.11
2018-08-23T09:49:29.265Z,989.06
2018-08-23T09:50:29.279Z,989.06
2018-08-23T09:51:29.282Z,989.03
2018-08-23T09:52:29.287Z,988.99
2018-08-23T09:53:29.299Z,988.95
2018-08-23T09:54:29.299Z,989
2018-08-23T09:55:29.304Z,989.02
2018-08-23T09:56:29.425Z,988.95
2018-08-23T09:57:29.318Z,988.97
2018-08-23T09:58:29.322Z,988.91
2018-08-23T09:59:29.328Z,988.92
2018-08-23T10:00:29.359Z,988.94
2018-08-23T10:01:29.377Z,988.86
2018-08-23T10:02:29.345Z,988.89
2018-08-23T10:03:29.352Z,988.9
2018-08-23T10:04:29.366Z,988.86
2018-08-23T10:05:29.365Z,988.86
2018-08-23T10:06:29.372Z,988.84
2018-08-23T10:07:29.385Z,988.9
2018-08-23T10:08:29.380Z,988.84
2018-08-23T10:09:29.385Z,988.82
2018-08-23T10:10:29.391Z,988.79
2018-08-23T10:11:29.489Z,988.83
2018-08-23T10:12:29.414Z,988.78
2018-08-23T10:13:29.406Z,988.76
2018-08-23T10:14:29.418Z,988.74
2018-08-23T10:15:29.419Z,988.78
2018-08-23T10:16:29.446Z,988.79
2018-08-23T10:17:29.522Z,988.72
2018-08-23T10:18:29.438Z,988.77
2018-08-23T10:19:29.454Z,988.71
2018-08-23T10:20:29.453Z,988.76
2018-08-23T10:21:29.474Z,988.77
2018-08-23T10:22:29.459Z,988.8
2018-08-23T10:23:29.472Z,988.74
2018-08-23T10:24:29.469Z,988.75
2018-08-23T10:25:29.475Z,988.75
2018-08-23T10:26:29.527Z,988.74
2018-08-23T10:27:29.489Z,988.76
2018-08-23T10:28:29.497Z,988.72
2018-08-23T10:29:29.498Z,988.72
2018-08-23T10:30:29.507Z,988.74
2018-08-23T10:31:29.531Z,988.73
2018-08-23T10:32:29.517Z,988.69
2018-08-23T10:33:29.530Z,988.71
2018-08-23T10:34:29.529Z,988.64
2018-08-23T10:35:29.530Z,988.64
2018-08-23T10:36:29.539Z,988.61
2018-08-23T10:37:29.544Z,988.62
2018-08-23T10:38:29.592Z,988.59
2018-08-23T10:39:29.567Z,988.62
2018-08-23T10:40:29.595Z,988.63
2018-08-23T10:41:29.581Z,988.63
2018-08-23T10:42:29.622Z,988.63
2018-08-23T10:43:29.585Z,988.61
2018-08-23T10:44:29.646Z,988.52
2018-08-23T10:45:29.604Z,988.57
2018-08-23T10:46:29.604Z,988.53
2018-08-23T10:47:29.597Z,988.61
2018-08-23T10:48:29.615Z,988.56
2018-08-23T10:49:29.617Z,988.57
2018-08-23T10:50:29.652Z,988.55
2018-08-23T10:51:29.630Z,988.61
2018-08-23T10:52:29.636Z,988.56
2018-08-23T10:53:29.640Z,988.55
2018-08-23T10:54:29.644Z,988.53
2018-08-23T10:55:29.651Z,988.53
2018-08-23T10:56:29.655Z,988.57
2018-08-23T10:57:29.657Z,988.59
2018-08-23T10:58:29.665Z,988.6
2018-08-23T10:59:29.670Z,988.53
2018-08-23T11:00:29.721Z,988.54
2018-08-23T11:01:29.704Z,988.54
2018-08-23T11:02:29.686Z,988.58
2018-08-23T11:03:29.724Z,988.58
2018-08-23T11:04:29.713Z,988.53
2018-08-23T11:05:29.707Z,988.59
2018-08-23T11:06:29.713Z,988.55
2018-08-23T11:07:29.718Z,988.52
2018-08-23T11:08:30.681Z,988.51
2018-08-23T11:09:29.732Z,988.5
2018-08-23T11:10:29.736Z,988.45
2018-08-23T11:11:29.739Z,988.41
2018-08-23T11:12:29.742Z,988.42
2018-08-23T11:13:29.751Z,988.34
2018-08-23T11:14:29.756Z,988.31
2018-08-23T11:15:29.766Z,988.26
2018-08-23T11:16:29.796Z,988.24
2018-08-23T11:17:29.776Z,988.24
2018-08-23T11:18:29.785Z,988.22
2018-08-23T11:19:29.783Z,988.21
2018-08-23T11:20:29.800Z,988.21
2018-08-23T11:21:29.795Z,988.15
2018-08-23T11:22:29.804Z,988.08
2018-08-23T11:23:29.810Z,988.08
2018-08-23T11:24:29.813Z,988.07
2018-08-23T11:25:29.826Z,988.07
2018-08-23T11:26:29.824Z,988.01
2018-08-23T11:27:29.830Z,987.98
2018-08-23T11:28:29.836Z,987.98
2018-08-23T11:29:29.903Z,988
2018-08-23T11:30:29.846Z,987.97
2018-08-23T11:31:29.867Z,987.94
2018-08-23T11:32:29.857Z,987.95
2018-08-23T11:33:29.865Z,987.87
2018-08-23T11:34:29.880Z,987.85
2018-08-23T11:35:29.878Z,987.85
2018-08-23T11:36:29.884Z,987.78
2018-08-23T11:37:29.887Z,987.74
2018-08-23T11:38:29.892Z,987.73
2018-08-23T11:39:29.904Z,987.7
2018-08-23T11:40:29.908Z,987.7
2018-08-23T11:41:29.923Z,987.69
2018-08-23T11:42:29.920Z,987.7
2018-08-23T11:43:29.955Z,987.68
2018-08-23T11:44:29.927Z,987.7
2018-08-23T11:45:29.936Z,987.64
2018-08-23T11:46:29.946Z,987.64
2018-08-23T11:47:29.953Z,987.62
2018-08-23T11:48:29.956Z,987.59
2018-08-23T11:49:29.958Z,987.58
2018-08-23T11:50:29.966Z,987.58
2018-08-23T11:51:29.978Z,987.57
2018-08-23T11:52:29.974Z,987.66
2018-08-23T11:53:30.169Z,987.71
2018-08-23T11:54:29.988Z,987.69
2018-08-23T11:55:29.997Z,987.66
2018-08-23T11:56:29.995Z,987.62
2018-08-23T11:57:30.006Z,987.53
2018-08-23T11:58:30.024Z,987.56
2018-08-23T11:59:30.027Z,987.51
2018-08-23T12:00:30.020Z,987.52
2018-08-23T12:01:30.026Z,987.51
2018-08-23T12:02:30.030Z,987.53
2018-08-23T12:03:30.038Z,987.55
2018-08-23T12:04:30.043Z,987.5
2018-08-23T12:05:30.048Z,987.53
2018-08-23T12:06:30.182Z,987.62
2018-08-23T12:07:30.060Z,987.59
2018-08-23T12:08:30.068Z,987.57
2018-08-23T12:09:30.072Z,987.57
2018-08-23T12:10:30.080Z,987.57
2018-08-23T12:11:30.083Z,987.6
2018-08-23T12:12:30.090Z,987.6
2018-08-23T12:13:30.099Z,987.56
2018-08-23T12:14:30.102Z,987.56
2018-08-23T12:15:30.151Z,987.57
2018-08-23T12:16:30.118Z,987.57
2018-08-23T12:17:30.123Z,987.58
2018-08-23T12:18:30.123Z,987.62
2018-08-23T12:19:30.132Z,987.64
2018-08-23T12:20:30.138Z,987.63
2018-08-23T12:21:30.143Z,987.67
2018-08-23T12:22:30.146Z,987.7
2018-08-23T12:23:30.154Z,987.68
2018-08-23T12:24:30.159Z,987.75
2018-08-23T12:25:30.185Z,987.76
2018-08-23T12:26:30.169Z,987.84
2018-08-23T12:27:30.176Z,987.92
2018-08-23T12:28:30.180Z,988.02
2018-08-23T12:29:30.192Z,987.95
2018-08-23T12:30:30.196Z,988.03
2018-08-23T12:31:30.211Z,988.07
2018-08-23T12:32:30.203Z,988.05